Time;durP1;ratioP1;P1;durP2;ratioP2;P2;SDS_P1;SDS_P2;PMS_P1;PMS_P2;Temp;Humidity;BMP_temperature;BMP_pressure;BME280_temperature;BME280_humidity;BME280_pressure;Samples;Min_cycle;Max_cycle;Signal;HPM_P1;HPM_P2
2021/03/25 00:02:19;;;;;;;68.37;31.90;;;2.70;99.90;;;;;;5149054;28;20220;-68
2021/03/25 00:04:51;;;;;;;66.00;31.30;;;2.70;99.90;;;;;;5149325;28;20232;-69
2021/03/25 00:07:23;;;;;;;66.53;32.27;;;2.60;99.90;;;;;;5149023;28;20196;-66
2021/03/25 00:09:54;;;;;;;68.40;31.00;;;2.60;99.90;;;;;;5148968;28;20748;-73
2021/03/25 00:12:26;;;;;;;69.00;30.73;;;2.70;99.90;;;;;;5149755;28;20644;-67
2021/03/25 00:14:58;;;;;;;71.23;31.47;;;2.70;99.90;;;;;;5149092;28;20199;-66
2021/03/25 00:17:29;;;;;;;69.57;31.87;;;2.70;99.90;;;;;;5149219;28;20201;-66
2021/03/25 00:20:01;;;;;;;67.10;31.67;;;2.70;99.90;;;;;;5149082;28;20208;-66
2021/03/25 00:22:33;;;;;;;76.07;33.23;;;2.70;99.90;;;;;;5148694;28;20224;-66
2021/03/25 00:25:06;;;;;;;75.17;33.67;;;2.70;99.90;;;;;;5148833;28;20200;-65
2021/03/25 00:27:38;;;;;;;73.37;33.30;;;2.70;99.90;;;;;;5149260;28;20562;-66
2021/03/25 00:30:13;;;;;;;75.47;34.60;;;2.70;99.90;;;;;;5149046;28;20195;-66
2021/03/25 00:32:44;;;;;;;71.83;33.17;;;2.70;99.90;;;;;;5148719;28;20196;-68
2021/03/25 00:35:18;;;;;;;78.53;34.97;;;2.70;99.90;;;;;;5149334;28;20275;-65
2021/03/25 00:37:49;;;;;;;78.37;33.80;;;2.70;99.90;;;;;;5149076;28;20687;-65
2021/03/25 00:40:21;;;;;;;70.30;33.10;;;2.80;99.90;;;;;;5149149;28;20563;-67
2021/03/25 00:42:52;;;;;;;77.50;34.87;;;2.80;99.90;;;;;;5148682;28;20224;-67
2021/03/25 00:45:51;;;;;;;75.70;34.07;;;2.80;99.90;;;;;;5149262;28;20207;-69
2021/03/25 00:48:24;;;;;;;71.30;32.50;;;2.80;99.90;;;;;;5129210;28;20564;-72
2021/03/25 00:51:00;;;;;;;71.53;32.53;;;2.80;99.90;;;;;;5148397;28;20232;-72
2021/03/25 00:53:35;;;;;;;77.60;32.77;;;2.80;99.90;;;;;;5148549;28;20196;-73
2021/03/25 00:56:07;;;;;;;63.27;29.83;;;2.90;99.90;;;;;;5148127;28;20204;-73
2021/03/25 00:58:39;;;;;;;70.43;31.63;;;2.90;99.90;;;;;;5148435;28;20203;-73
2021/03/25 01:01:10;;;;;;;70.23;32.77;;;2.90;99.90;;;;;;5149167;28;20643;-72
2021/03/25 01:07:29;;;;;;;68.93;31.40;;;2.90;99.90;;;;;;5148048;28;20564;-73
2021/03/25 01:10:04;;;;;;;74.57;32.73;;;2.90;99.90;;;;;;5147856;28;20199;-72
2021/03/25 01:12:35;;;;;;;70.70;32.10;;;2.90;99.90;;;;;;5148217;28;20577;-74
2021/03/25 01:15:08;;;;;;;72.63;32.57;;;2.90;99.90;;;;;;5148085;28;20219;-72
2021/03/25 01:17:47;;;;;;;66.37;31.40;;;2.90;99.90;;;;;;5147676;28;20208;-73
2021/03/25 01:24:06;;;;;;;68.77;30.63;;;2.80;99.90;;;;;;5147980;28;20195;-72
2021/03/25 01:26:38;;;;;;;72.90;31.90;;;2.80;99.90;;;;;;5147914;28;20192;-73
2021/03/25 01:29:10;;;;;;;73.53;33.13;;;2.80;99.90;;;;;;5147594;28;20200;-73
2021/03/25 01:31:41;;;;;;;69.13;31.73;;;2.80;99.90;;;;;;5147681;28;20208;-71
2021/03/25 01:34:16;;;;;;;71.47;31.97;;;2.80;99.90;;;;;;5147770;28;20524;-72
2021/03/25 01:36:50;;;;;;;71.73;31.70;;;2.80;99.90;;;;;;5147547;28;20204;-74
2021/03/25 01:39:21;;;;;;;67.20;32.30;;;2.80;99.90;;;;;;5147672;28;20635;-73
2021/03/25 01:41:53;;;;;;;72.60;32.83;;;2.80;99.90;;;;;;5148296;28;20544;-72
2021/03/25 01:44:51;;;;;;;73.70;33.43;;;2.80;99.90;;;;;;5147539;28;20200;-70
2021/03/25 01:47:22;;;;;;;70.30;31.80;;;2.80;99.90;;;;;;5145564;28;20204;-71
2021/03/25 01:49:54;;;;;;;70.47;32.60;;;2.70;99.90;;;;;;5147387;28;20296;-71
2021/03/25 01:52:52;;;;;;;73.33;33.03;;;2.70;99.90;;;;;;5147495;28;20609;-74
2021/03/25 01:55:29;;;;;;;73.27;32.23;;;2.70;99.90;;;;;;5147770;28;20250;-67
2021/03/25 01:58:38;;;;;;;77.37;32.23;;;2.70;99.90;;;;;;5146927;28;20203;-67
2021/03/25 02:01:42;;;;;;;73.83;31.57;;;2.70;99.90;;;;;;5147404;28;20196;-65
2021/03/25 02:08:24;;;;;;;67.10;30.57;;;2.50;99.90;;;;;;5146900;28;20223;-65
2021/03/25 02:11:18;;;;;;;77.67;32.40;;;2.50;99.90;;;;;;5146700;28;20211;-69
2021/03/25 02:14:19;;;;;;;74.57;32.00;;;2.40;99.90;;;;;;5147083;28;20540;-65
2021/03/25 02:17:35;;;;;;;74.97;33.00;;;2.40;99.90;;;;;;5146618;28;20199;-65
2021/03/25 02:20:19;;;;;;;74.73;31.80;;;2.40;99.90;;;;;;5104797;29;20206;-70
2021/03/25 02:23:15;;;;;;;76.50;33.13;;;2.40;99.90;;;;;;5104724;29;20688;-70
2021/03/25 02:25:54;;;;;;;76.93;33.67;;;2.30;99.90;;;;;;5105119;29;20281;-72
2021/03/25 02:28:47;;;;;;;76.77;32.70;;;2.30;99.90;;;;;;5104901;29;20201;-72
2021/03/25 02:31:24;;;;;;;73.13;32.93;;;2.20;99.90;;;;;;5104753;29;20219;-72
2021/03/25 02:33:59;;;;;;;74.70;32.93;;;2.20;99.90;;;;;;5104630;29;20197;-74
2021/03/25 02:36:50;;;;;;;81.37;34.03;;;2.10;99.90;;;;;;5104593;29;20757;-72
2021/03/25 02:39:32;;;;;;;77.00;34.00;;;2.10;99.90;;;;;;5104511;29;20567;-73
2021/03/25 02:42:16;;;;;;;77.10;33.10;;;2.10;99.90;;;;;;5104389;29;20251;-72
2021/03/25 02:44:54;;;;;;;75.70;32.20;;;2.10;99.90;;;;;;5104623;29;20299;-71
2021/03/25 02:47:27;;;;;;;75.00;32.90;;;2.10;99.90;;;;;;5089267;29;20636;-72
2021/03/25 02:54:09;;;;;;;79.83;32.47;;;2.00;99.90;;;;;;5143673;28;20219;-71
2021/03/25 02:56:58;;;;;;;86.10;34.67;;;1.90;99.90;;;;;;5147023;28;20200;-70
2021/03/25 02:59:35;;;;;;;80.80;33.67;;;1.90;99.90;;;;;;5146536;28;20564;-72
2021/03/25 03:02:41;;;;;;;82.87;33.60;;;1.90;99.90;;;;;;5146555;28;20630;-71
2021/03/25 03:09:15;;;;;;;79.83;32.93;;;1.90;99.90;;;;;;5104327;28;20212;-66
2021/03/25 03:11:50;;;;;;;76.13;32.67;;;1.90;99.90;;;;;;5105970;29;20225;-70
2021/03/25 03:14:52;;;;;;;76.70;32.50;;;1.90;99.90;;;;;;5108418;29;20209;-67
2021/03/25 03:17:34;;;;;;;77.33;33.57;;;1.90;99.90;;;;;;5108579;29;20193;-65
2021/03/25 03:24:01;;;;;;;83.60;33.30;;;1.90;99.90;;;;;;5108224;29;20575;-66
2021/03/25 03:26:38;;;;;;;84.80;34.07;;;1.90;99.90;;;;;;5107918;29;20582;-66
2021/03/25 03:29:10;;;;;;;86.97;33.60;;;1.90;99.90;;;;;;5108135;29;20641;-65
2021/03/25 03:31:46;;;;;;;87.43;35.63;;;1.90;99.90;;;;;;5107999;29;20213;-66
2021/03/25 03:34:24;;;;;;;81.23;34.20;;;1.90;99.90;;;;;;5108057;29;20692;-66
2021/03/25 03:40:53;;;;;;;84.00;33.90;;;1.80;99.90;;;;;;5130412;28;20194;-65
2021/03/25 03:43:26;;;;;;;86.77;34.57;;;1.90;99.90;;;;;;5149861;28;20228;-65
2021/03/25 03:46:02;;;;;;;88.93;35.20;;;1.90;99.90;;;;;;5149728;28;20207;-66
2021/03/25 03:48:40;;;;;;;86.97;35.27;;;1.90;99.90;;;;;;5132628;28;20196;-65
2021/03/25 03:51:29;;;;;;;88.43;35.33;;;1.90;99.90;;;;;;5132536;28;20279;-65
2021/03/25 03:54:03;;;;;;;85.07;35.60;;;1.90;99.90;;;;;;5149234;28;20265;-66
2021/03/25 03:57:03;;;;;;;82.53;35.37;;;1.90;99.90;;;;;;5149322;28;20207;-65
2021/03/25 04:00:05;;;;;;;84.10;35.47;;;1.90;99.90;;;;;;5132997;28;20200;-63
2021/03/25 04:02:54;;;;;;;84.47;33.73;;;1.80;99.90;;;;;;5132859;28;20216;-66
2021/03/25 04:09:18;;;;;;;85.03;34.30;;;1.90;99.90;;;;;;5149992;28;20182;-67
2021/03/25 04:12:00;;;;;;;82.27;33.47;;;1.80;99.90;;;;;;5149704;28;20192;-66
2021/03/25 04:14:38;;;;;;;80.87;33.47;;;1.80;99.90;;;;;;5150021;28;20291;-74
2021/03/25 04:17:12;;;;;;;81.37;34.20;;;1.80;99.90;;;;;;5149776;28;20200;-73
2021/03/25 04:19:47;;;;;;;79.23;32.40;;;1.80;99.90;;;;;;5132398;28;20291;-73
2021/03/25 04:26:18;;;;;;;77.33;31.63;;;1.70;99.90;;;;;;5149158;28;20180;-75
2021/03/25 04:29:03;;;;;;;76.63;32.57;;;1.70;99.90;;;;;;5149002;28;20662;-74
2021/03/25 04:31:35;;;;;;;77.93;31.67;;;1.70;99.90;;;;;;5149235;28;20192;-74
2021/03/25 04:34:06;;;;;;;80.97;32.83;;;1.70;99.90;;;;;;5149034;28;20660;-78
2021/03/25 04:36:42;;;;;;;90.70;36.40;;;1.70;99.90;;;;;;5148974;28;20214;-78
2021/03/25 04:39:17;;;;;;;83.03;34.33;;;1.80;99.90;;;;;;5148856;28;20200;-77
2021/03/25 04:41:49;;;;;;;82.90;34.17;;;1.90;99.90;;;;;;5149047;28;20584;-77
2021/03/25 04:44:45;;;;;;;85.20;35.90;;;2.00;99.90;;;;;;5148861;28;20200;-74
2021/03/25 04:47:19;;;;;;;85.87;35.07;;;2.10;99.90;;;;;;5148850;28;20652;-77
2021/03/25 04:54:33;;;;;;;80.07;33.53;;;2.20;99.90;;;;;;5126241;29;20356;-76
2021/03/25 04:57:23;;;;;;;79.33;33.47;;;2.30;99.90;;;;;;5126219;29;20660;-74
2021/03/25 04:59:56;;;;;;;80.10;32.67;;;2.30;99.90;;;;;;5126796;29;20561;-75
2021/03/25 05:02:30;;;;;;;78.30;32.93;;;2.40;99.90;;;;;;5111363;29;20637;-76
2021/03/25 05:05:03;;;;;;;77.90;33.73;;;2.40;99.90;;;;;;5128203;29;20201;-79
2021/03/25 05:07:38;;;;;;;72.70;31.97;;;2.40;99.90;;;;;;5127251;28;20212;-76
2021/03/25 05:10:25;;;;;;;81.27;34.47;;;2.50;99.90;;;;;;5126514;29;20273;-68
2021/03/25 05:12:58;;;;;;;84.77;35.47;;;2.60;99.90;;;;;;5125869;28;20208;-68
2021/03/25 05:15:31;;;;;;;76.77;33.83;;;2.70;99.90;;;;;;5126149;29;20201;-65
2021/03/25 05:18:24;;;;;;;74.47;35.07;;;2.70;99.90;;;;;;5126562;28;20220;-71
2021/03/25 05:25:11;;;;;;;73.57;32.87;;;2.80;99.90;;;;;;5141929;28;20234;-76
2021/03/25 05:28:22;;;;;;;83.80;36.13;;;2.90;99.90;;;;;;5148184;28;20200;-67
2021/03/25 05:30:55;;;;;;;77.93;34.97;;;3.00;99.90;;;;;;5105808;29;20298;-69
2021/03/25 05:33:31;;;;;;;77.20;35.10;;;3.00;99.90;;;;;;5105460;29;20213;-70
2021/03/25 05:39:57;;;;;;;84.03;35.73;;;3.10;99.90;;;;;;5105427;29;20207;-68
2021/03/25 05:42:50;;;;;;;84.73;37.63;;;3.30;99.90;;;;;;5105289;29;20665;-71
2021/03/25 05:46:04;;;;;;;76.83;36.27;;;3.40;99.90;;;;;;5105506;29;20633;-66
2021/03/25 05:48:51;;;;;;;80.67;35.07;;;3.50;99.90;;;;;;5105639;29;20201;-68
2021/03/25 05:55:31;;;;;;;81.03;35.27;;;3.80;99.90;;;;;;5102266;29;20304;-73
2021/03/25 05:58:15;;;;;;;74.93;34.37;;;4.00;99.90;;;;;;5105709;29;20228;-71
2021/03/25 06:00:51;;;;;;;77.37;34.20;;;4.10;99.90;;;;;;5106287;29;20205;-77
2021/03/25 06:03:26;;;;;;;77.10;35.67;;;4.20;99.90;;;;;;5110066;29;20328;-76
2021/03/25 06:06:00;;;;;;;80.80;37.27;;;4.40;99.90;;;;;;5114268;29;20547;-81
2021/03/25 06:13:00;;;;;;;80.63;35.17;;;4.70;99.90;;;;;;5109992;29;20170;-67
2021/03/25 06:16:14;;;;;;;72.77;34.47;;;4.80;99.90;;;;;;5105398;29;20236;-70
2021/03/25 06:18:48;;;;;;;75.00;35.00;;;5.00;99.90;;;;;;5108229;29;20197;-75
2021/03/25 06:25:52;;;;;;;74.37;34.57;;;5.30;99.90;;;;;;5108555;29;20190;-75
2021/03/25 06:28:26;;;;;;;75.17;35.57;;;5.50;99.90;;;;;;5085698;29;20305;-76
2021/03/25 06:31:15;;;;;;;74.60;36.00;;;5.70;99.90;;;;;;5084826;29;20202;-72
2021/03/25 06:33:58;;;;;;;78.20;37.40;;;5.80;99.90;;;;;;5085001;29;20280;-72
2021/03/25 06:36:44;;;;;;;73.23;35.30;;;6.00;99.90;;;;;;5084485;29;20205;-70
2021/03/25 06:39:22;;;;;;;76.93;37.27;;;6.10;99.90;;;;;;5084708;29;20705;-67
2021/03/25 06:42:17;;;;;;;82.77;39.30;;;6.20;99.90;;;;;;5068913;29;20753;-66
2021/03/25 06:45:04;;;;;;;81.87;38.90;;;6.30;99.90;;;;;;5084550;29;20589;-73
2021/03/25 06:47:50;;;;;;;72.77;37.57;;;6.50;99.90;;;;;;5084102;29;20190;-69
2021/03/25 06:50:39;;;;;;;77.00;38.23;;;6.70;99.90;;;;;;5084454;29;20765;-67
2021/03/25 06:53:24;;;;;;;72.20;37.33;;;7.20;99.90;;;;;;5084439;29;20209;-68
2021/03/25 06:55:59;;;;;;;73.23;38.07;;;8.30;99.90;;;;;;5090976;29;20240;-68
2021/03/25 06:58:38;;;;;;;64.77;34.10;;;9.60;99.90;;;;;;5104181;29;20232;-67
2021/03/25 07:01:19;;;;;;;63.77;35.07;;;10.90;99.90;;;;;;5104154;29;20219;-71
2021/03/25 07:03:55;;;;;;;61.83;34.13;;;12.10;99.90;;;;;;5108118;29;20232;-76
2021/03/25 07:06:30;;;;;;;56.83;33.80;;;13.10;99.90;;;;;;5125972;28;20196;-71
2021/03/25 07:09:03;;;;;;;57.20;33.47;;;14.00;99.90;;;;;;5126228;28;20271;-68
2021/03/25 07:11:36;;;;;;;56.17;34.30;;;14.60;99.90;;;;;;5126240;28;20679;-66
2021/03/25 07:14:18;;;;;;;57.73;32.30;;;15.40;99.90;;;;;;5126088;28;20200;-72
2021/03/25 07:16:50;;;;;;;55.25;33.15;;;16.00;99.90;;;;;;5126331;29;20197;-74
2021/03/25 07:19:22;;;;;;;52.13;31.77;;;16.60;99.90;;;;;;5125844;28;20204;-73
2021/03/25 07:25:43;;;;;;;49.83;33.30;;;16.40;99.90;;;;;;5126390;29;20500;-77
2021/03/25 07:28:21;;;;;;;51.95;33.55;;;16.00;99.90;;;;;;5126200;28;20212;-74
2021/03/25 07:31:02;;;;;;;54.22;32.80;;;16.00;99.90;;;;;;5126218;28;20204;-72
2021/03/25 07:33:39;;;;;;;53.45;33.78;;;15.70;99.90;;;;;;5126353;28;20387;-75
2021/03/25 07:36:14;;;;;;;56.37;33.90;;;15.30;99.90;;;;;;5125889;28;20201;-76
2021/03/25 07:42:34;;;;;;;50.70;31.50;;;14.60;99.90;;;;;;5126394;29;20327;-71
2021/03/25 07:45:29;;;;;;;56.97;33.10;;;14.20;99.90;;;;;;5126232;29;20201;-73
2021/03/25 07:48:24;;;;;;;56.03;33.10;;;13.50;99.90;;;;;;5126019;28;20241;-73
2021/03/25 07:51:13;;;;;;;53.10;31.60;;;12.90;99.90;;;;;;5126140;28;20197;-70
2021/03/25 07:53:46;;;;;;;56.43;32.80;;;12.50;99.90;;;;;;5140325;28;20194;-74
2021/03/25 07:56:19;;;;;;;53.70;32.17;;;12.30;99.90;;;;;;5124812;28;20248;-75
2021/03/25 07:59:36;;;;;;;55.67;33.77;;;12.10;99.90;;;;;;5129036;28;20197;-73
2021/03/25 08:02:33;;;;;;;58.77;33.47;;;11.90;99.90;;;;;;5142622;28;20220;-76
2021/03/25 08:05:29;;;;;;;54.83;31.53;;;11.80;99.90;;;;;;5127213;28;20197;-71
2021/03/25 08:12:02;;;;;;;53.87;32.03;;;11.70;99.90;;;;;;5117623;29;20526;-70
2021/03/25 08:14:36;;;;;;;58.73;32.13;;;11.50;99.90;;;;;;5128333;28;20189;-74
2021/03/25 08:17:12;;;;;;;55.63;31.67;;;11.50;99.90;;;;;;5128404;28;20201;-73
2021/03/25 08:20:25;;;;;;;63.03;33.40;;;11.40;99.90;;;;;;5128803;29;20661;-73
2021/03/25 08:23:30;;;;;;;60.60;32.47;;;11.40;99.90;;;;;;5128616;28;20228;-72
2021/03/25 08:26:15;;;;;;;57.67;32.60;;;11.40;99.90;;;;;;5128552;28;20193;-75
2021/03/25 08:29:01;;;;;;;55.13;32.47;;;11.60;99.90;;;;;;5128256;28;20212;-75
2021/03/25 08:31:55;;;;;;;54.03;31.43;;;11.60;99.90;;;;;;5128496;28;20237;-73
2021/03/25 08:34:54;;;;;;;54.90;31.67;;;11.70;99.90;;;;;;5128129;28;20207;-72
2021/03/25 08:41:33;;;;;;;59.60;31.63;;;11.80;99.90;;;;;;5127919;29;20595;-75
2021/03/25 08:44:26;;;;;;;50.83;29.50;;;11.80;99.90;;;;;;5124474;28;20699;-67
2021/03/25 08:47:02;;;;;;;56.90;32.30;;;11.80;99.90;;;;;;5120253;29;20189;-67
2021/03/25 08:49:37;;;;;;;56.60;33.13;;;11.80;99.90;;;;;;5127243;28;20223;-69
2021/03/25 08:52:14;;;;;;;55.87;31.43;;;11.80;99.90;;;;;;5126558;29;20201;-69
2021/03/25 08:58:59;;;;;;;57.13;32.33;;;11.90;99.90;;;;;;5145423;28;20247;-69
2021/03/25 09:01:37;;;;;;;55.27;31.20;;;11.90;99.90;;;;;;5146759;28;20206;-71
2021/03/25 09:04:10;;;;;;;59.50;33.47;;;11.90;99.90;;;;;;5146663;28;20628;-71
2021/03/25 09:06:44;;;;;;;57.73;32.93;;;11.80;99.90;;;;;;5145872;28;20203;-72
2021/03/25 09:13:03;;;;;;;64.43;33.97;;;11.50;99.90;;;;;;5147045;28;20559;-72
2021/03/25 09:15:35;;;;;;;58.10;32.87;;;11.20;99.90;;;;;;5146998;28;20189;-69
2021/03/25 09:18:09;;;;;;;59.60;35.77;;;11.20;99.90;;;;;;5144700;28;20688;-69
2021/03/25 09:20:46;;;;;;;61.53;34.37;;;11.30;99.90;;;;;;5130266;28;20192;-70
2021/03/25 09:23:32;;;;;;;55.03;32.67;;;11.40;99.90;;;;;;5146246;28;20323;-66
2021/03/25 09:26:12;;;;;;;59.43;32.33;;;11.60;99.90;;;;;;5146642;28;20206;-70
2021/03/25 09:28:59;;;;;;;57.43;31.80;;;11.80;99.90;;;;;;5147184;28;20196;-68
2021/03/25 09:31:41;;;;;;;53.43;30.33;;;12.20;99.90;;;;;;5147002;28;20208;-70
2021/03/25 09:34:13;;;;;;;54.07;30.47;;;12.50;99.90;;;;;;5147020;28;20232;-66
2021/03/25 09:36:46;;;;;;;52.07;29.73;;;12.60;99.90;;;;;;5146842;28;20284;-66
2021/03/25 09:39:27;;;;;;;53.10;29.87;;;12.70;99.90;;;;;;5146489;28;20196;-65
2021/03/25 09:42:03;;;;;;;54.57;31.33;;;12.80;99.90;;;;;;5147117;28;20196;-65
2021/03/25 09:44:53;;;;;;;52.97;30.80;;;12.90;99.90;;;;;;5132217;28;20223;-67
2021/03/25 09:47:36;;;;;;;52.37;29.90;;;13.00;99.90;;;;;;5146910;28;20188;-65
2021/03/25 09:50:20;;;;;;;52.83;30.30;;;13.10;99.90;;;;;;5145128;28;20200;-71
2021/03/25 09:56:37;;;;;;;50.87;28.43;;;13.10;99.90;;;;;;5145842;28;20543;-69
2021/03/25 09:59:46;;;;;;;46.90;28.80;;;13.10;99.90;;;;;;5144833;28;20326;-72
2021/03/25 10:02:40;;;;;;;46.47;29.30;;;13.00;99.90;;;;;;5127373;28;20247;-73
2021/03/25 10:05:14;;;;;;;46.37;27.83;;;12.90;99.90;;;;;;5146540;28;20259;-71
2021/03/25 10:07:48;;;;;;;44.73;27.40;;;12.90;99.90;;;;;;5146288;28;20208;-70
2021/03/25 10:14:46;;;;;;;50.63;29.23;;;12.90;99.90;;;;;;5137065;28;20179;-72
2021/03/25 10:17:44;;;;;;;47.13;27.77;;;12.90;99.90;;;;;;5137038;28;20695;-73
2021/03/25 10:20:57;;;;;;;46.53;29.43;;;12.80;99.90;;;;;;5116115;28;20204;-72
2021/03/25 10:27:50;;;;;;;49.40;29.90;;;12.90;99.90;;;;;;5136430;28;20230;-77
2021/03/25 10:30:28;;;;;;;51.93;30.47;;;13.20;99.90;;;;;;5135084;28;20214;-67
2021/03/25 10:33:04;;;;;;;49.80;30.07;;;13.20;99.90;;;;;;5142622;28;20196;-70
2021/03/25 10:35:52;;;;;;;51.43;30.40;;;13.30;99.90;;;;;;5142523;28;20196;-73
2021/03/25 10:38:28;;;;;;;47.57;28.20;;;13.30;99.90;;;;;;5145097;28;20200;-70
2021/03/25 10:41:03;;;;;;;40.70;25.47;;;13.20;99.90;;;;;;5144921;28;20203;-67
2021/03/25 10:43:35;;;;;;;51.10;28.17;;;13.30;99.90;;;;;;5142428;28;20352;-68
2021/03/25 10:46:09;;;;;;;46.27;27.13;;;13.20;99.90;;;;;;5140967;28;20279;-66
2021/03/25 10:48:43;;;;;;;49.20;28.37;;;13.20;99.90;;;;;;5141107;28;20196;-67
2021/03/25 10:51:21;;;;;;;47.47;30.40;;;13.30;99.90;;;;;;5145023;28;20202;-67
2021/03/25 10:53:56;;;;;;;43.13;27.97;;;13.20;99.90;;;;;;5144599;28;20196;-66
2021/03/25 10:56:37;;;;;;;44.50;28.27;;;13.10;99.90;;;;;;5145073;28;20242;-68
2021/03/25 10:59:16;;;;;;;47.37;27.80;;;13.10;99.90;;;;;;5143166;28;20821;-71
2021/03/25 11:01:56;;;;;;;46.63;27.00;;;13.10;99.90;;;;;;5144513;28;20650;-72
2021/03/25 11:04:32;;;;;;;46.27;27.40;;;13.10;99.90;;;;;;5145461;28;20196;-72
2021/03/25 11:07:18;;;;;;;43.17;26.63;;;13.10;99.90;;;;;;5129407;28;20198;-69
2021/03/25 11:09:59;;;;;;;42.03;24.77;;;13.30;99.90;;;;;;5146251;28;20192;-69
2021/03/25 11:12:34;;;;;;;44.70;27.50;;;13.40;99.90;;;;;;5145966;28;20207;-72
2021/03/25 11:15:20;;;;;;;42.57;26.07;;;13.50;99.90;;;;;;5145929;28;20185;-70
2021/03/25 11:17:53;;;;;;;44.63;26.80;;;13.50;99.90;;;;;;5145670;28;20195;-70
2021/03/25 11:20:28;;;;;;;47.00;28.73;;;13.40;99.90;;;;;;5128509;28;20255;-73
2021/03/25 11:22:59;;;;;;;50.23;29.53;;;13.40;99.90;;;;;;5145304;28;20231;-70
2021/03/25 11:25:33;;;;;;;48.57;28.53;;;13.20;99.90;;;;;;5145136;28;20195;-70
2021/03/25 11:28:11;;;;;;;47.03;27.33;;;13.20;99.90;;;;;;5145482;28;20200;-71
2021/03/25 11:30:47;;;;;;;49.07;27.83;;;13.20;99.90;;;;;;5144564;28;20199;-69
2021/03/25 11:33:38;;;;;;;48.33;28.27;;;13.40;99.90;;;;;;5130455;28;20211;-70
2021/03/25 11:36:11;;;;;;;45.27;28.73;;;13.50;99.90;;;;;;5132348;28;20280;-70
2021/03/25 11:42:49;;;;;;;41.00;24.27;;;13.70;99.90;;;;;;5126216;28;20244;-71
2021/03/25 11:45:45;;;;;;;45.60;27.50;;;13.90;99.90;;;;;;5126556;29;20227;-69
2021/03/25 11:48:31;;;;;;;46.90;26.63;;;14.00;99.90;;;;;;5126276;29;20205;-71
2021/03/25 11:51:15;;;;;;;48.83;29.60;;;13.90;99.90;;;;;;5124666;29;20208;-74
2021/03/25 11:58:18;;;;;;;46.93;28.07;;;13.80;99.90;;;;;;5123447;28;21567;-69
2021/03/25 12:01:04;;;;;;;46.43;27.03;;;13.80;99.90;;;;;;5102531;29;20197;-68
2021/03/25 12:03:53;;;;;;;49.13;31.03;;;13.80;99.90;;;;;;5104565;29;20222;-69
2021/03/25 12:06:30;;;;;;;52.33;30.60;;;13.70;99.90;;;;;;5100788;29;20261;-68
2021/03/25 12:09:17;;;;;;;49.23;30.00;;;13.50;99.90;;;;;;5106225;29;20413;-68
2021/03/25 12:11:50;;;;;;;51.60;29.87;;;13.50;99.90;;;;;;5101226;29;20300;-68
2021/03/25 12:14:23;;;;;;;49.43;30.33;;;13.50;99.90;;;;;;5106434;29;20695;-68
2021/03/25 12:16:58;;;;;;;56.20;33.93;;;13.50;99.90;;;;;;5108505;29;20193;-67
2021/03/25 12:19:49;;;;;;;55.47;32.87;;;13.30;99.90;;;;;;5107373;29;20213;-68
2021/03/25 12:22:31;;;;;;;62.17;36.40;;;13.20;99.90;;;;;;5108290;29;20280;-69
2021/03/25 12:25:04;;;;;;;62.83;36.57;;;13.20;99.90;;;;;;5101025;29;20288;-68
2021/03/25 12:27:35;;;;;;;62.17;35.83;;;13.20;99.90;;;;;;5108123;29;20194;-68
2021/03/25 12:30:09;;;;;;;60.13;34.80;;;13.20;99.90;;;;;;5104783;29;20689;-68
2021/03/25 12:32:40;;;;;;;60.70;35.93;;;13.10;99.90;;;;;;5122977;29;20205;-69
2021/03/25 12:35:20;;;;;;;59.57;35.07;;;13.10;99.90;;;;;;5108111;29;20205;-69
2021/03/25 12:37:51;;;;;;;58.23;34.37;;;13.10;99.90;;;;;;5106777;29;20554;-69
2021/03/25 12:40:25;;;;;;;60.63;35.40;;;13.00;99.90;;;;;;5107621;29;20284;-69
2021/03/25 12:42:57;;;;;;;63.77;35.93;;;13.10;99.90;;;;;;5107898;29;20240;-69
2021/03/25 12:45:38;;;;;;;64.37;38.07;;;13.00;99.90;;;;;;5106516;29;20197;-69
2021/03/25 12:48:10;;;;;;;61.20;36.47;;;12.90;99.90;;;;;;5108146;29;20194;-68
2021/03/25 12:50:43;;;;;;;58.10;36.60;;;12.90;99.90;;;;;;5108216;29;20225;-69
2021/03/25 12:53:16;;;;;;;65.20;37.33;;;12.70;99.90;;;;;;5107897;29;20194;-69
2021/03/25 12:55:48;;;;;;;61.10;37.30;;;12.70;99.90;;;;;;5105320;29;20555;-68
2021/03/25 12:58:40;;;;;;;62.87;36.23;;;12.60;99.90;;;;;;5107754;28;20623;-69
2021/03/25 13:01:16;;;;;;;60.30;35.77;;;12.60;99.90;;;;;;5147243;28;20211;-69
2021/03/25 13:03:49;;;;;;;64.63;37.33;;;12.60;99.90;;;;;;5147289;28;20231;-71
2021/03/25 13:06:22;;;;;;;68.37;36.60;;;12.60;99.90;;;;;;5147958;28;20192;-67
2021/03/25 13:08:53;;;;;;;60.60;35.53;;;12.50;99.90;;;;;;5148083;28;20196;-69
2021/03/25 13:11:28;;;;;;;65.63;36.93;;;12.50;99.90;;;;;;5147794;28;20207;-67
2021/03/25 13:14:05;;;;;;;63.73;35.17;;;12.40;99.90;;;;;;5147832;28;20200;-68
2021/03/25 13:16:38;;;;;;;69.07;38.57;;;12.40;99.90;;;;;;5147721;28;20222;-69
2021/03/25 13:19:09;;;;;;;63.07;35.83;;;12.40;99.90;;;;;;5147364;28;20224;-71
2021/03/25 13:21:41;;;;;;;63.50;36.43;;;12.30;99.90;;;;;;5146549;28;20200;-70
2021/03/25 13:24:16;;;;;;;64.30;36.57;;;12.30;99.90;;;;;;5147115;28;20230;-69
2021/03/25 13:26:48;;;;;;;63.87;37.40;;;12.30;99.90;;;;;;5146496;28;20228;-70
2021/03/25 13:29:19;;;;;;;67.57;37.17;;;12.30;99.90;;;;;;5147496;28;20283;-72
2021/03/25 13:31:51;;;;;;;72.60;39.60;;;12.40;99.90;;;;;;5147330;28;20200;-70
2021/03/25 13:34:23;;;;;;;66.83;37.70;;;12.40;99.90;;;;;;5147231;28;20299;-70
2021/03/25 13:36:55;;;;;;;68.83;40.30;;;12.40;99.90;;;;;;5146679;28;20211;-69
2021/03/25 13:39:27;;;;;;;65.23;37.90;;;12.30;99.90;;;;;;5146955;28;20557;-71
2021/03/25 13:41:58;;;;;;;63.50;36.53;;;12.30;99.90;;;;;;5145698;28;20212;-69
2021/03/25 13:44:30;;;;;;;62.23;37.53;;;12.20;99.90;;;;;;5141296;28;20701;-70
2021/03/25 13:47:02;;;;;;;64.57;36.03;;;12.20;99.90;;;;;;5146043;28;20203;-67
2021/03/25 13:49:33;;;;;;;63.50;35.57;;;12.20;99.90;;;;;;5146559;28;20196;-70
2021/03/25 13:52:05;;;;;;;71.37;40.07;;;12.20;99.90;;;;;;5146646;28;20254;-71
2021/03/25 13:54:37;;;;;;;62.93;36.13;;;12.20;99.90;;;;;;5141296;28;20199;-69
2021/03/25 13:57:09;;;;;;;58.60;35.93;;;12.30;99.90;;;;;;5146579;28;20224;-71
2021/03/25 13:59:40;;;;;;;66.17;38.90;;;12.40;99.90;;;;;;5146391;28;20244;-70
2021/03/25 14:02:12;;;;;;;62.33;35.63;;;12.50;99.90;;;;;;5146145;28;20212;-71
2021/03/25 14:04:46;;;;;;;66.30;38.67;;;12.70;99.90;;;;;;5146472;28;20694;-69
2021/03/25 14:07:21;;;;;;;60.77;35.40;;;12.80;99.90;;;;;;5146478;28;20578;-71
2021/03/25 14:09:52;;;;;;;56.97;33.67;;;12.90;99.90;;;;;;5146432;28;20203;-69
2021/03/25 14:12:27;;;;;;;64.10;36.67;;;13.10;99.90;;;;;;5146288;28;20635;-71
2021/03/25 14:14:58;;;;;;;66.27;39.03;;;13.30;99.90;;;;;;5146475;28;20648;-69
2021/03/25 14:17:30;;;;;;;71.20;39.80;;;13.50;99.90;;;;;;5144387;28;20200;-69
2021/03/25 14:20:05;;;;;;;82.43;40.33;;;13.50;99.90;;;;;;5146092;28;20196;-69
2021/03/25 14:22:42;;;;;;;72.83;39.00;;;13.50;99.90;;;;;;5146074;28;20234;-70
2021/03/25 14:29:10;;;;;;;66.47;35.97;;;13.40;99.90;;;;;;5146222;28;20175;-70
2021/03/25 14:31:42;;;;;;;68.00;37.30;;;13.40;99.90;;;;;;5142065;28;20226;-70
2021/03/25 14:34:14;;;;;;;63.77;36.70;;;13.40;99.90;;;;;;5146392;28;20197;-75
2021/03/25 14:36:46;;;;;;;63.27;37.27;;;13.30;99.90;;;;;;5145915;28;20203;-69
2021/03/25 14:39:18;;;;;;;67.83;37.53;;;13.20;99.90;;;;;;5146062;28;20256;-70
2021/03/25 14:45:48;;;;;;;66.27;36.70;;;12.90;99.90;;;;;;5146548;28;20635;-71
2021/03/25 14:48:21;;;;;;;69.93;37.20;;;12.70;99.90;;;;;;5146034;28;20283;-71
2021/03/25 14:50:57;;;;;;;73.00;40.63;;;12.50;99.90;;;;;;5145782;28;20216;-71
2021/03/25 14:53:28;;;;;;;72.93;40.83;;;12.30;99.90;;;;;;5146268;28;20203;-70
2021/03/25 14:56:00;;;;;;;75.27;41.07;;;12.20;99.90;;;;;;5145745;28;20204;-70
2021/03/25 14:58:31;;;;;;;80.20;42.43;;;12.00;99.90;;;;;;5144596;28;20196;-69
2021/03/25 15:01:04;;;;;;;77.67;41.93;;;11.90;99.90;;;;;;5145742;28;20204;-72
2021/03/25 15:03:36;;;;;;;76.60;42.30;;;11.70;99.90;;;;;;5146270;28;20230;-70
2021/03/25 15:06:16;;;;;;;78.17;42.43;;;11.70;99.90;;;;;;5145005;28;20280;-69
2021/03/25 15:08:53;;;;;;;80.33;45.27;;;11.60;99.90;;;;;;5149090;28;20638;-69
2021/03/25 15:11:25;;;;;;;80.53;43.17;;;11.60;99.90;;;;;;5148343;28;20227;-68
2021/03/25 15:13:56;;;;;;;80.93;43.17;;;11.60;99.90;;;;;;5149654;28;20234;-67
2021/03/25 15:16:28;;;;;;;78.97;43.00;;;11.70;99.90;;;;;;5149487;28;20200;-67
2021/03/25 15:19:01;;;;;;;77.77;44.10;;;11.70;99.90;;;;;;5149848;28;20196;-71
2021/03/25 15:21:32;;;;;;;80.00;44.43;;;11.80;99.90;;;;;;5149444;28;20566;-71
2021/03/25 15:24:05;;;;;;;85.40;46.20;;;11.80;99.90;;;;;;5149551;28;20227;-68